sensor_id;sensor_type;location;lat;lon;timestamp;pressure;altitude;pressure_sealevel;temperature;humidity
52105;BME280;38103;42.776;23.112;2023-09-19T00:01:29;94333.50;;;12.72;100.00
52105;BME280;38103;42.776;23.112;2023-09-19T00:03:57;94392.44;;;13.03;100.00
52105;BME280;38103;42.776;23.112;2023-09-19T00:06:23;94353.75;;;12.78;100.00
52105;BME280;38103;42.776;23.112;2023-09-19T00:08:54;94383.91;;;13.01;100.00
52105;BME280;38103;42.776;23.112;2023-09-19T00:11:20;94383.41;;;13.04;100.00
52105;BME280;38103;42.776;23.112;2023-09-19T00:13:47;94377.88;;;13.06;100.00
52105;BME280;38103;42.776;23.112;2023-09-19T00:16:15;94378.25;;;12.98;100.00
52105;BME280;38103;42.776;23.112;2023-09-19T00:18:40;94367.53;;;12.92;100.00
52105;BME280;38103;42.776;23.112;2023-09-19T00:21:06;94370.38;;;12.85;100.00
52105;BME280;38103;42.776;23.112;2023-09-19T00:23:32;94357.78;;;12.81;100.00
52105;BME280;38103;42.776;23.112;2023-09-19T00:25:59;94367.13;;;12.83;100.00
52105;BME280;38103;42.776;23.112;2023-09-19T00:28:24;94377.16;;;12.81;100.00
52105;BME280;38103;42.776;23.112;2023-09-19T00:30:50;94372.28;;;12.73;100.00
52105;BME280;38103;42.776;23.112;2023-09-19T00:33:15;94353.50;;;12.62;100.00
52105;BME280;38103;42.776;23.112;2023-09-19T00:35:50;94370.66;;;12.72;100.00
52105;BME280;38103;42.776;23.112;2023-09-19T00:38:15;94369.03;;;12.71;100.00
52105;BME280;38103;42.776;23.112;2023-09-19T00:40:45;94368.47;;;12.69;100.00
52105;BME280;38103;42.776;23.112;2023-09-19T00:43:11;94349.50;;;12.48;100.00
52105;BME280;38103;42.776;23.112;2023-09-19T00:45:38;94325.56;;;12.43;100.00
52105;BME280;38103;42.776;23.112;2023-09-19T00:48:04;94363.44;;;12.84;100.00
52105;BME280;38103;42.776;23.112;2023-09-19T00:50:31;94364.41;;;12.95;100.00
52105;BME280;38103;42.776;23.112;2023-09-19T00:52:58;94360.00;;;13.01;100.00
52105;BME280;38103;42.776;23.112;2023-09-19T00:55:24;94368.28;;;13.05;100.00
52105;BME280;38103;42.776;23.112;2023-09-19T00:57:50;94359.44;;;12.99;100.00
52105;BME280;38103;42.776;23.112;2023-09-19T01:00:16;94365.78;;;12.98;100.00
52105;BME280;38103;42.776;23.112;2023-09-19T01:02:44;94317.59;;;12.72;100.00
52105;BME280;38103;42.776;23.112;2023-09-19T01:05:10;94364.72;;;12.99;100.00
52105;BME280;38103;42.776;23.112;2023-09-19T01:07:36;94358.31;;;12.95;100.00
52105;BME280;38103;42.776;23.112;2023-09-19T01:10:06;94359.94;;;12.96;100.00
52105;BME280;38103;42.776;23.112;2023-09-19T01:15:17;94368.91;;;12.95;100.00
52105;BME280;38103;42.776;23.112;2023-09-19T01:17:50;94318.84;;;12.52;100.00
52105;BME280;38103;42.776;23.112;2023-09-19T01:28:20;94361.66;;;12.73;100.00
52105;BME280;38103;42.776;23.112;2023-09-19T01:30:47;94366.09;;;12.84;100.00
52105;BME280;38103;42.776;23.112;2023-09-19T01:33:19;94368.75;;;12.84;100.00
52105;BME280;38103;42.776;23.112;2023-09-19T01:35:45;94341.66;;;12.53;100.00
52105;BME280;38103;42.776;23.112;2023-09-19T01:38:10;94366.19;;;12.60;100.00
52105;BME280;38103;42.776;23.112;2023-09-19T01:40:43;94369.69;;;12.49;100.00
52105;BME280;38103;42.776;23.112;2023-09-19T01:43:20;94370.06;;;12.40;100.00
52105;BME280;38103;42.776;23.112;2023-09-19T01:46:02;94305.59;;;11.99;100.00
52105;BME280;38103;42.776;23.112;2023-09-19T01:48:44;94362.38;;;12.27;100.00
52105;BME280;38103;42.776;23.112;2023-09-19T01:51:15;94363.88;;;12.23;100.00
52105;BME280;38103;42.776;23.112;2023-09-19T01:53:53;94358.59;;;12.23;100.00
52105;BME280;38103;42.776;23.112;2023-09-19T01:56:29;94358.34;;;12.12;100.00
52105;BME280;38103;42.776;23.112;2023-09-19T01:59:04;94361.72;;;12.07;100.00
52105;BME280;38103;42.776;23.112;2023-09-19T02:01:31;94300.16;;;11.64;100.00
52105;BME280;38103;42.776;23.112;2023-09-19T02:03:57;94358.94;;;12.02;100.00
52105;BME280;38103;42.776;23.112;2023-09-19T02:06:23;94358.81;;;12.09;100.00
52105;BME280;38103;42.776;23.112;2023-09-19T02:08:50;94356.41;;;12.07;100.00
52105;BME280;38103;42.776;23.112;2023-09-19T02:11:15;94361.84;;;12.01;100.00
52105;BME280;38103;42.776;23.112;2023-09-19T02:13:41;94360.47;;;11.86;100.00
52105;BME280;38103;42.776;23.112;2023-09-19T02:16:07;94352.41;;;11.81;100.00
52105;BME280;38103;42.776;23.112;2023-09-19T02:18:34;94351.72;;;11.73;100.00
52105;BME280;38103;42.776;23.112;2023-09-19T02:21:03;94339.75;;;11.59;100.00
52105;BME280;38103;42.776;23.112;2023-09-19T02:23:29;94356.91;;;11.56;100.00
52105;BME280;38103;42.776;23.112;2023-09-19T02:25:56;94354.47;;;11.55;100.00
52105;BME280;38103;42.776;23.112;2023-09-19T02:28:26;94352.19;;;11.58;100.00
52105;BME280;38103;42.776;23.112;2023-09-19T02:30:55;94355.97;;;11.62;100.00
52105;BME280;38103;42.776;23.112;2023-09-19T02:33:21;94343.44;;;11.58;100.00
52105;BME280;38103;42.776;23.112;2023-09-19T02:35:47;94335.63;;;11.51;100.00
52105;BME280;38103;42.776;23.112;2023-09-19T02:38:12;94331.94;;;11.40;100.00
52105;BME280;38103;42.776;23.112;2023-09-19T02:40:38;94335.16;;;11.42;100.00
52105;BME280;38103;42.776;23.112;2023-09-19T02:43:03;94266.34;;;11.18;100.00
52105;BME280;38103;42.776;23.112;2023-09-19T02:45:30;94328.94;;;11.72;100.00
52105;BME280;38103;42.776;23.112;2023-09-19T02:47:55;94326.38;;;11.78;100.00
52105;BME280;38103;42.776;23.112;2023-09-19T02:50:21;94321.78;;;11.85;100.00
52105;BME280;38103;42.776;23.112;2023-09-19T02:52:47;94317.03;;;11.87;100.00
52105;BME280;38103;42.776;23.112;2023-09-19T02:55:14;94268.63;;;11.50;100.00
52105;BME280;38103;42.776;23.112;2023-09-19T02:57:49;94329.34;;;11.93;100.00
52105;BME280;38103;42.776;23.112;2023-09-19T03:00:17;94322.44;;;11.92;100.00
52105;BME280;38103;42.776;23.112;2023-09-19T03:02:46;94323.59;;;11.96;100.00
52105;BME280;38103;42.776;23.112;2023-09-19T03:05:11;94310.47;;;11.78;100.00
52105;BME280;38103;42.776;23.112;2023-09-19T03:07:37;94312.00;;;11.61;100.00
52105;BME280;38103;42.776;23.112;2023-09-19T03:10:05;94306.25;;;11.53;100.00
52105;BME280;38103;42.776;23.112;2023-09-19T03:12:30;94302.91;;;11.45;100.00
52105;BME280;38103;42.776;23.112;2023-09-19T03:14:57;94305.22;;;11.54;100.00
52105;BME280;38103;42.776;23.112;2023-09-19T03:17:22;94302.69;;;11.59;100.00
52105;BME280;38103;42.776;23.112;2023-09-19T03:19:47;94273.22;;;11.43;100.00
52105;BME280;38103;42.776;23.112;2023-09-19T03:22:14;94313.50;;;11.69;100.00
52105;BME280;38103;42.776;23.112;2023-09-19T03:24:39;94268.16;;;11.29;100.00
52105;BME280;38103;42.776;23.112;2023-09-19T03:27:05;94316.28;;;11.50;100.00
52105;BME280;38103;42.776;23.112;2023-09-19T03:29:30;94314.53;;;11.44;100.00
52105;BME280;38103;42.776;23.112;2023-09-19T03:31:55;94304.66;;;11.27;100.00
52105;BME280;38103;42.776;23.112;2023-09-19T03:34:21;94321.69;;;11.32;100.00
52105;BME280;38103;42.776;23.112;2023-09-19T03:36:46;94321.09;;;11.29;100.00
52105;BME280;38103;42.776;23.112;2023-09-19T03:39:12;94323.19;;;11.27;100.00
52105;BME280;38103;42.776;23.112;2023-09-19T03:41:37;94322.50;;;11.20;100.00
52105;BME280;38103;42.776;23.112;2023-09-19T03:44:03;94321.31;;;11.16;100.00
52105;BME280;38103;42.776;23.112;2023-09-19T03:46:28;94337.91;;;11.23;100.00
52105;BME280;38103;42.776;23.112;2023-09-19T03:48:55;94297.63;;;10.97;100.00
52105;BME280;38103;42.776;23.112;2023-09-19T03:51:20;94333.31;;;11.31;100.00
52105;BME280;38103;42.776;23.112;2023-09-19T03:53:46;94332.97;;;11.27;100.00
52105;BME280;38103;42.776;23.112;2023-09-19T03:56:14;94332.38;;;11.13;100.00
52105;BME280;38103;42.776;23.112;2023-09-19T03:58:39;94335.03;;;11.13;100.00
52105;BME280;38103;42.776;23.112;2023-09-19T04:01:05;94340.91;;;11.15;100.00
52105;BME280;38103;42.776;23.112;2023-09-19T04:03:33;94333.97;;;11.14;100.00
52105;BME280;38103;42.776;23.112;2023-09-19T04:06:13;94335.59;;;11.15;100.00
52105;BME280;38103;42.776;23.112;2023-09-19T04:08:38;94331.69;;;11.05;100.00
52105;BME280;38103;42.776;23.112;2023-09-19T04:11:04;94322.91;;;10.93;100.00
52105;BME280;38103;42.776;23.112;2023-09-19T04:13:29;94316.78;;;10.80;100.00
52105;BME280;38103;42.776;23.112;2023-09-19T04:15:55;94300.66;;;10.70;100.00
52105;BME280;38103;42.776;23.112;2023-09-19T04:18:20;94317.97;;;10.97;100.00
52105;BME280;38103;42.776;23.112;2023-09-19T04:20:50;94316.25;;;11.02;100.00
52105;BME280;38103;42.776;23.112;2023-09-19T04:23:15;94315.81;;;11.05;100.00
52105;BME280;38103;42.776;23.112;2023-09-19T04:25:42;94316.50;;;11.13;100.00
52105;BME280;38103;42.776;23.112;2023-09-19T04:28:08;94313.50;;;11.21;100.00
52105;BME280;38103;42.776;23.112;2023-09-19T04:30:35;94275.88;;;11.07;100.00
52105;BME280;38103;42.776;23.112;2023-09-19T04:33:00;94276.13;;;11.05;100.00
52105;BME280;38103;42.776;23.112;2023-09-19T04:35:27;94313.63;;;11.38;100.00
52105;BME280;38103;42.776;23.112;2023-09-19T04:37:55;94315.91;;;11.47;100.00
52105;BME280;38103;42.776;23.112;2023-09-19T04:40:21;94280.94;;;11.33;100.00
52105;BME280;38103;42.776;23.112;2023-09-19T04:42:54;94299.47;;;11.57;100.00
52105;BME280;38103;42.776;23.112;2023-09-19T04:45:23;94314.19;;;11.77;100.00
52105;BME280;38103;42.776;23.112;2023-09-19T04:47:48;94314.94;;;12.01;100.00
52105;BME280;38103;42.776;23.112;2023-09-19T04:50:14;94260.00;;;11.96;100.00
52105;BME280;38103;42.776;23.112;2023-09-19T04:52:40;94314.00;;;12.49;100.00
52105;BME280;38103;42.776;23.112;2023-09-19T04:55:11;94319.22;;;12.73;100.00
52105;BME280;38103;42.776;23.112;2023-09-19T04:57:41;94316.75;;;13.01;100.00
52105;BME280;38103;42.776;23.112;2023-09-19T05:00:07;94321.16;;;13.29;100.00
52105;BME280;38103;42.776;23.112;2023-09-19T05:02:37;94323.25;;;13.62;100.00
52105;BME280;38103;42.776;23.112;2023-09-19T05:05:03;94318.81;;;13.90;100.00
52105;BME280;38103;42.776;23.112;2023-09-19T05:07:30;94325.34;;;14.22;100.00
52105;BME280;38103;42.776;23.112;2023-09-19T05:09:55;94315.00;;;14.53;100.00
52105;BME280;38103;42.776;23.112;2023-09-19T05:12:20;94330.19;;;14.81;100.00
52105;BME280;38103;42.776;23.112;2023-09-19T05:14:46;94324.56;;;14.77;100.00
52105;BME280;38103;42.776;23.112;2023-09-19T05:17:11;94327.16;;;14.72;100.00
52105;BME280;38103;42.776;23.112;2023-09-19T05:19:36;94320.78;;;14.23;100.00
52105;BME280;38103;42.776;23.112;2023-09-19T05:22:03;94310.03;;;14.12;100.00
52105;BME280;38103;42.776;23.112;2023-09-19T05:24:29;94319.56;;;14.08;100.00
52105;BME280;38103;42.776;23.112;2023-09-19T05:26:56;94319.97;;;14.17;100.00
52105;BME280;38103;42.776;23.112;2023-09-19T05:29:22;94316.78;;;14.43;100.00
52105;BME280;38103;42.776;23.112;2023-09-19T05:31:47;94309.75;;;14.59;100.00
52105;BME280;38103;42.776;23.112;2023-09-19T05:34:13;94311.19;;;14.72;100.00
52105;BME280;38103;42.776;23.112;2023-09-19T05:36:38;94304.97;;;14.33;100.00
52105;BME280;38103;42.776;23.112;2023-09-19T05:39:04;94266.59;;;14.01;100.00
52105;BME280;38103;42.776;23.112;2023-09-19T05:41:33;94304.69;;;14.57;100.00
52105;BME280;38103;42.776;23.112;2023-09-19T05:43:59;94303.38;;;14.88;100.00
52105;BME280;38103;42.776;23.112;2023-09-19T05:46:24;94298.28;;;15.14;100.00
52105;BME280;38103;42.776;23.112;2023-09-19T05:48:55;94304.56;;;14.97;100.00
52105;BME280;38103;42.776;23.112;2023-09-19T05:51:23;94303.78;;;14.74;100.00
52105;BME280;38103;42.776;23.112;2023-09-19T05:53:49;94295.53;;;14.75;100.00
52105;BME280;38103;42.776;23.112;2023-09-19T05:56:15;94295.09;;;14.84;100.00
52105;BME280;38103;42.776;23.112;2023-09-19T05:58:40;94284.69;;;14.82;100.00
52105;BME280;38103;42.776;23.112;2023-09-19T06:01:09;94284.78;;;14.93;100.00
52105;BME280;38103;42.776;23.112;2023-09-19T06:03:35;94244.44;;;14.73;100.00
52105;BME280;38103;42.776;23.112;2023-09-19T06:06:03;94286.28;;;15.11;100.00
52105;BME280;38103;42.776;23.112;2023-09-19T06:08:31;94289.56;;;14.91;100.00
52105;BME280;38103;42.776;23.112;2023-09-19T06:10:57;94281.28;;;14.87;100.00
52105;BME280;38103;42.776;23.112;2023-09-19T06:13:22;94282.47;;;15.40;100.00
52105;BME280;38103;42.776;23.112;2023-09-19T06:15:50;94277.66;;;15.37;100.00
52105;BME280;38103;42.776;23.112;2023-09-19T06:18:17;94266.00;;;15.48;100.00
52105;BME280;38103;42.776;23.112;2023-09-19T06:20:48;94258.28;;;15.08;100.00
52105;BME280;38103;42.776;23.112;2023-09-19T06:23:16;94257.44;;;15.03;100.00
52105;BME280;38103;42.776;23.112;2023-09-19T06:25:42;94291.00;;;15.42;100.00
52105;BME280;38103;42.776;23.112;2023-09-19T06:28:09;94232.28;;;15.21;100.00
52105;BME280;38103;42.776;23.112;2023-09-19T06:30:37;94286.28;;;15.55;100.00
52105;BME280;38103;42.776;23.112;2023-09-19T06:33:05;94281.25;;;15.15;100.00
52105;BME280;38103;42.776;23.112;2023-09-19T06:35:33;94278.69;;;15.30;100.00
52105;BME280;38103;42.776;23.112;2023-09-19T06:37:59;94282.03;;;15.53;100.00
52105;BME280;38103;42.776;23.112;2023-09-19T06:40:28;94274.97;;;15.32;100.00
52105;BME280;38103;42.776;23.112;2023-09-19T06:42:56;94281.44;;;15.46;100.00
52105;BME280;38103;42.776;23.112;2023-09-19T06:45:21;94283.00;;;15.37;100.00
52105;BME280;38103;42.776;23.112;2023-09-19T06:47:48;94238.56;;;15.04;100.00
52105;BME280;38103;42.776;23.112;2023-09-19T06:50:21;94292.63;;;15.43;100.00
52105;BME280;38103;42.776;23.112;2023-09-19T06:52:49;94286.81;;;15.57;100.00
52105;BME280;38103;42.776;23.112;2023-09-19T06:55:16;94300.19;;;15.62;100.00
52105;BME280;38103;42.776;23.112;2023-09-19T06:57:42;94299.69;;;15.70;100.00
52105;BME280;38103;42.776;23.112;2023-09-19T07:00:09;94297.78;;;15.60;100.00
52105;BME280;38103;42.776;23.112;2023-09-19T07:03:03;94302.53;;;15.53;100.00
52105;BME280;38103;42.776;23.112;2023-09-19T07:05:34;94298.03;;;15.53;100.00
52105;BME280;38103;42.776;23.112;2023-09-19T07:08:03;94284.16;;;15.57;100.00
52105;BME280;38103;42.776;23.112;2023-09-19T07:10:29;94309.44;;;15.92;100.00
52105;BME280;38103;42.776;23.112;2023-09-19T07:12:58;94292.88;;;15.95;100.00
52105;BME280;38103;42.776;23.112;2023-09-19T07:15:25;94305.84;;;16.25;100.00
52105;BME280;38103;42.776;23.112;2023-09-19T15:16:24;93976.09;;;23.53;58.37
52105;BME280;38103;42.776;23.112;2023-09-19T15:18:49;93981.16;;;23.37;58.79
52105;BME280;38103;42.776;23.112;2023-09-19T15:21:17;93976.50;;;23.20;59.84
52105;BME280;38103;42.776;23.112;2023-09-19T15:23:43;93973.19;;;23.23;60.67
52105;BME280;38103;42.776;23.112;2023-09-19T15:26:12;93975.09;;;23.14;60.22
52105;BME280;38103;42.776;23.112;2023-09-19T15:28:38;93972.69;;;23.03;60.52
52105;BME280;38103;42.776;23.112;2023-09-19T15:31:09;93974.91;;;23.01;60.69
52105;BME280;38103;42.776;23.112;2023-09-19T15:33:35;93975.53;;;22.98;61.29
52105;BME280;38103;42.776;23.112;2023-09-19T15:38:28;93980.59;;;22.91;62.00
52105;BME280;38103;42.776;23.112;2023-09-19T15:40:53;93977.22;;;22.85;62.17
52105;BME280;38103;42.776;23.112;2023-09-19T15:43:19;93985.00;;;22.86;63.01
52105;BME280;38103;42.776;23.112;2023-09-19T15:45:46;93986.94;;;22.95;62.58
52105;BME280;38103;42.776;23.112;2023-09-19T15:48:13;93998.31;;;22.92;62.41
52105;BME280;38103;42.776;23.112;2023-09-19T15:50:39;93980.38;;;22.78;62.80
52105;BME280;38103;42.776;23.112;2023-09-19T15:53:07;94004.66;;;22.78;63.75
52105;BME280;38103;42.776;23.112;2023-09-19T15:55:38;94006.84;;;22.76;63.53
52105;BME280;38103;42.776;23.112;2023-09-19T15:58:04;94006.13;;;22.61;63.78
52105;BME280;38103;42.776;23.112;2023-09-19T16:00:32;94007.00;;;22.48;64.33
52105;BME280;38103;42.776;23.112;2023-09-19T16:03:01;94005.34;;;22.29;65.28
52105;BME280;38103;42.776;23.112;2023-09-19T16:05:27;94003.03;;;22.13;66.69
52105;BME280;38103;42.776;23.112;2023-09-19T16:07:53;94005.84;;;22.08;67.30
52105;BME280;38103;42.776;23.112;2023-09-19T16:10:19;94007.66;;;21.98;67.68
52105;BME280;38103;42.776;23.112;2023-09-19T16:12:44;94003.50;;;21.92;67.72
52105;BME280;38103;42.776;23.112;2023-09-19T16:15:09;94003.72;;;21.82;68.32
52105;BME280;38103;42.776;23.112;2023-09-19T16:17:40;94005.56;;;21.72;69.32
52105;BME280;38103;42.776;23.112;2023-09-19T16:20:06;94004.78;;;21.58;69.51
52105;BME280;38103;42.776;23.112;2023-09-19T16:22:33;94013.34;;;21.60;69.49
52105;BME280;38103;42.776;23.112;2023-09-19T16:24:58;94008.59;;;21.57;69.32
52105;BME280;38103;42.776;23.112;2023-09-19T16:27:24;94005.22;;;21.51;69.68
52105;BME280;38103;42.776;23.112;2023-09-19T16:29:49;94015.38;;;21.54;69.51
52105;BME280;38103;42.776;23.112;2023-09-19T16:32:15;94003.25;;;21.42;69.61
52105;BME280;38103;42.776;23.112;2023-09-19T16:34:41;93997.56;;;21.44;69.59
52105;BME280;38103;42.776;23.112;2023-09-19T16:37:06;94012.25;;;21.61;69.75
52105;BME280;38103;42.776;23.112;2023-09-19T16:39:31;94015.28;;;21.45;69.49
52105;BME280;38103;42.776;23.112;2023-09-19T16:41:57;94018.69;;;21.37;69.92
52105;BME280;38103;42.776;23.112;2023-09-19T16:44:22;94015.44;;;21.26;70.56
52105;BME280;38103;42.776;23.112;2023-09-19T16:46:48;94019.41;;;21.28;70.59
52105;BME280;38103;42.776;23.112;2023-09-19T16:49:13;94022.38;;;21.41;70.83
52105;BME280;38103;42.776;23.112;2023-09-19T16:51:39;94026.75;;;21.51;71.71
52105;BME280;38103;42.776;23.112;2023-09-19T16:54:06;94018.19;;;21.35;71.25
52105;BME280;38103;42.776;23.112;2023-09-19T16:56:32;94020.44;;;21.04;71.44
52105;BME280;38103;42.776;23.112;2023-09-19T16:59:04;93997.72;;;20.68;72.56
52105;BME280;38103;42.776;23.112;2023-09-19T17:03:58;94024.16;;;20.61;73.91
52105;BME280;38103;42.776;23.112;2023-09-19T17:06:24;94033.22;;;20.51;75.22
52105;BME280;38103;42.776;23.112;2023-09-19T17:08:50;94025.91;;;20.37;75.70
52105;BME280;38103;42.776;23.112;2023-09-19T17:11:16;94029.09;;;20.25;76.63
52105;BME280;38103;42.776;23.112;2023-09-19T17:13:45;94025.88;;;20.23;76.31
52105;BME280;38103;42.776;23.112;2023-09-19T17:16:16;94021.88;;;20.20;76.47
52105;BME280;38103;42.776;23.112;2023-09-19T17:18:55;94037.91;;;20.26;76.76
52105;BME280;38103;42.776;23.112;2023-09-19T17:21:21;93973.06;;;19.85;77.31
52105;BME280;38103;42.776;23.112;2023-09-19T17:23:46;94043.34;;;20.20;77.99
52105;BME280;38103;42.776;23.112;2023-09-19T17:26:13;94038.16;;;20.10;78.49
52105;BME280;38103;42.776;23.112;2023-09-19T17:28:40;94041.41;;;20.07;79.30
52105;BME280;38103;42.776;23.112;2023-09-19T17:31:11;94037.34;;;20.09;79.70
52105;BME280;38103;42.776;23.112;2023-09-19T17:33:37;94043.53;;;20.10;79.96
52105;BME280;38103;42.776;23.112;2023-09-19T17:36:07;94044.69;;;20.04;80.79
52105;BME280;38103;42.776;23.112;2023-09-19T17:38:33;94035.09;;;19.97;81.26
52105;BME280;38103;42.776;23.112;2023-09-19T17:41:05;94043.31;;;20.06;81.22
52105;BME280;38103;42.776;23.112;2023-09-19T17:43:36;94047.44;;;19.98;81.78
52105;BME280;38103;42.776;23.112;2023-09-19T17:46:14;94047.03;;;19.91;82.16
52105;BME280;38103;42.776;23.112;2023-09-19T17:48:43;94053.75;;;19.88;82.53
52105;BME280;38103;42.776;23.112;2023-09-19T17:51:10;94057.91;;;19.81;83.08
52105;BME280;38103;42.776;23.112;2023-09-19T17:53:36;94055.28;;;19.75;84.05
52105;BME280;38103;42.776;23.112;2023-09-19T17:56:03;94039.41;;;19.60;84.40
52105;BME280;38103;42.776;23.112;2023-09-19T17:58:29;93994.31;;;19.23;85.13
52105;BME280;38103;42.776;23.112;2023-09-19T18:00:55;94003.72;;;19.20;85.74
52105;BME280;38103;42.776;23.112;2023-09-19T18:03:22;94059.88;;;19.56;85.82
52105;BME280;38103;42.776;23.112;2023-09-19T18:05:53;94056.06;;;19.57;86.10
52105;BME280;38103;42.776;23.112;2023-09-19T18:08:19;94057.97;;;19.56;86.02
52105;BME280;38103;42.776;23.112;2023-09-19T18:10:48;94058.91;;;19.46;86.57
52105;BME280;38103;42.776;23.112;2023-09-19T18:13:14;94060.06;;;19.40;87.12
52105;BME280;38103;42.776;23.112;2023-09-19T18:15:39;94062.25;;;19.38;87.31
52105;BME280;38103;42.776;23.112;2023-09-19T18:18:05;94072.91;;;19.43;87.20
52105;BME280;38103;42.776;23.112;2023-09-19T18:20:35;94025.28;;;19.10;87.59
52105;BME280;38103;42.776;23.112;2023-09-19T18:23:02;94066.63;;;19.28;87.95
52105;BME280;38103;42.776;23.112;2023-09-19T18:25:28;94076.38;;;19.19;89.21
52105;BME280;38103;42.776;23.112;2023-09-19T18:27:53;94075.31;;;19.15;89.35
52105;BME280;38103;42.776;23.112;2023-09-19T18:30:19;94081.47;;;19.15;88.78
52105;BME280;38103;42.776;23.112;2023-09-19T18:32:46;94086.19;;;19.04;89.27
52105;BME280;38103;42.776;23.112;2023-09-19T18:35:12;94092.31;;;19.05;89.80
52105;BME280;38103;42.776;23.112;2023-09-19T18:37:40;94096.66;;;19.01;90.42
52105;BME280;38103;42.776;23.112;2023-09-19T18:40:07;94085.69;;;18.97;90.91
52105;BME280;38103;42.776;23.112;2023-09-19T18:42:36;94087.31;;;18.98;91.15
52105;BME280;38103;42.776;23.112;2023-09-19T18:45:01;94095.28;;;19.03;91.11
52105;BME280;38103;42.776;23.112;2023-09-19T18:47:27;94082.19;;;19.02;90.55
52105;BME280;38103;42.776;23.112;2023-09-19T18:49:54;94093.13;;;19.05;90.67
52105;BME280;38103;42.776;23.112;2023-09-19T18:52:19;94099.56;;;19.04;91.14
52105;BME280;38103;42.776;23.112;2023-09-19T18:54:44;94091.59;;;18.99;92.13
52105;BME280;38103;42.776;23.112;2023-09-19T18:57:10;94096.47;;;18.92;92.12
52105;BME280;38103;42.776;23.112;2023-09-19T18:59:38;94093.28;;;18.90;92.72
52105;BME280;38103;42.776;23.112;2023-09-19T19:02:03;94101.88;;;18.86;92.79
52105;BME280;38103;42.776;23.112;2023-09-19T19:04:29;94106.16;;;18.87;92.95
52105;BME280;38103;42.776;23.112;2023-09-19T19:06:54;94102.53;;;18.78;93.90
52105;BME280;38103;42.776;23.112;2023-09-19T19:09:20;94105.75;;;18.75;94.11
52105;BME280;38103;42.776;23.112;2023-09-19T19:11:46;94111.09;;;18.75;94.12
52105;BME280;38103;42.776;23.112;2023-09-19T19:14:11;94112.72;;;18.76;94.14
52105;BME280;38103;42.776;23.112;2023-09-19T19:16:37;94116.59;;;18.89;92.95
52105;BME280;38103;42.776;23.112;2023-09-19T19:19:04;94123.91;;;18.83;92.17
52105;BME280;38103;42.776;23.112;2023-09-19T19:21:36;94137.31;;;19.08;91.21
52105;BME280;38103;42.776;23.112;2023-09-19T19:24:01;94149.03;;;19.12;92.95
52105;BME280;38103;42.776;23.112;2023-09-19T19:26:27;94153.00;;;19.20;92.66
52105;BME280;38103;42.776;23.112;2023-09-19T19:28:53;94135.28;;;18.94;91.96
52105;BME280;38103;42.776;23.112;2023-09-19T19:31:18;94158.63;;;19.24;91.79
52105;BME280;38103;42.776;23.112;2023-09-19T19:33:44;94165.34;;;19.21;91.63
52105;BME280;38103;42.776;23.112;2023-09-19T19:36:10;94120.13;;;18.84;93.50
52105;BME280;38103;42.776;23.112;2023-09-19T19:38:37;94128.44;;;18.83;97.87
52105;BME280;38103;42.776;23.112;2023-09-19T19:41:03;94190.03;;;19.13;100.00
52105;BME280;38103;42.776;23.112;2023-09-19T19:43:30;94198.72;;;19.04;100.00
52105;BME280;38103;42.776;23.112;2023-09-19T19:45:56;94205.69;;;19.00;100.00
52105;BME280;38103;42.776;23.112;2023-09-19T19:48:22;94218.72;;;18.82;100.00
52105;BME280;38103;42.776;23.112;2023-09-19T19:50:47;94238.63;;;18.71;100.00
52105;BME280;38103;42.776;23.112;2023-09-19T19:53:14;94242.53;;;18.43;100.00
52105;BME280;38103;42.776;23.112;2023-09-19T19:55:39;94263.31;;;18.06;100.00
52105;BME280;38103;42.776;23.112;2023-09-19T19:58:05;94259.41;;;17.83;100.00
52105;BME280;38103;42.776;23.112;2023-09-19T20:00:32;94278.66;;;17.74;100.00
52105;BME280;38103;42.776;23.112;2023-09-19T20:02:59;94285.69;;;17.55;100.00
52105;BME280;38103;42.776;23.112;2023-09-19T20:05:24;94278.75;;;17.22;100.00
52105;BME280;38103;42.776;23.112;2023-09-19T20:07:51;94291.59;;;17.20;100.00
52105;BME280;38103;42.776;23.112;2023-09-19T20:10:17;94301.19;;;17.05;100.00
52105;BME280;38103;42.776;23.112;2023-09-19T20:12:45;94314.78;;;16.93;100.00
52105;BME280;38103;42.776;23.112;2023-09-19T20:15:10;94306.00;;;16.88;100.00
52105;BME280;38103;42.776;23.112;2023-09-19T20:17:37;94341.22;;;16.90;100.00
52105;BME280;38103;42.776;23.112;2023-09-19T20:20:06;94343.59;;;16.81;100.00
52105;BME280;38103;42.776;23.112;2023-09-19T20:22:40;94317.16;;;16.63;100.00
52105;BME280;38103;42.776;23.112;2023-09-19T20:25:06;94336.88;;;16.62;100.00
52105;BME280;38103;42.776;23.112;2023-09-19T20:27:33;94362.00;;;16.61;100.00
52105;BME280;38103;42.776;23.112;2023-09-19T20:29:58;94366.00;;;16.64;100.00
52105;BME280;38103;42.776;23.112;2023-09-19T20:44:06;94358.88;;;17.12;100.00
52105;BME280;38103;42.776;23.112;2023-09-19T20:46:34;94367.94;;;16.90;100.00
52105;BME280;38103;42.776;23.112;2023-09-19T20:49:01;94377.53;;;16.75;100.00
52105;BME280;38103;42.776;23.112;2023-09-19T20:51:26;94378.28;;;16.65;100.00
52105;BME280;38103;42.776;23.112;2023-09-19T20:53:59;94376.94;;;16.68;100.00
52105;BME280;38103;42.776;23.112;2023-09-19T20:56:25;94359.34;;;16.72;100.00
52105;BME280;38103;42.776;23.112;2023-09-19T20:58:50;94343.38;;;16.82;100.00
52105;BME280;38103;42.776;23.112;2023-09-19T21:01:16;94331.34;;;16.90;100.00
52105;BME280;38103;42.776;23.112;2023-09-19T21:03:42;94317.22;;;16.95;100.00
52105;BME280;38103;42.776;23.112;2023-09-19T21:06:11;94291.31;;;16.85;100.00
52105;BME280;38103;42.776;23.112;2023-09-19T21:08:39;94272.84;;;16.62;100.00